메인 페이지
METAR-TAF:

METAR-TAF

공항 :

Chanute, 캔자스, 미국

위도: 37-40-13N, 경도: 095-29-03W, 고도: 305m

현재 날씨관측

예보는 1 시간 7분 전, 14:52시(UTC)에 발표되었습니다.
북서19kt, 순간 최대 풍속 25kt
온도 1°C
습도 69%
기압 1025 hPa
시정: 16.1km
고도 1800ft 상공 구름 조금

METAR: KCNU 181452Z AUTO 32019G25KT 10SM FEW018 01/M04 A3026 RMK AO2 PK WND 31030/1427 PRESRR SLP251 T00111039 51058

시각: 09:59 (15:59 UTC)

예보

예보는 4 시간 39분 전, 11:20시(UTC)에 발표되었습니다.
예보 대상 시간: 18일 12시부터 19일 12시까지 (UTC)
북서19kt, 순간 최대 풍속 27kt
시정: 10km
고도 2000ft 상공 흐림
18일 1400시부터 (UTC)
북서18kt, 순간 최대 풍속 26kt
시정: 10km
맑음
19일 0000시부터 (UTC)
북북서6kt
시정: 10km
고도 25000ft 상공 구름 조금

TAF: KCNU 181120Z 1812/1912 31019G27KT P6SM OVC020 FM181400 32018G26KT P6SM SKC FM190000 33006KT P6SM FEW250

4,000개 이상의 공항 관측 자료 및 예보 (METAR 및 TAF 보고).

지도상에서 검색 가능한 기상관측소가 노란 점과 빨간 점으로 표시되어 있습니다.

기상관측소 명을 보려면 표시 위로 마우스를 이동하세요.

날씨 관측과 예보를 보려면 클릭하세요.

지도 변경 : 확대하려면 엑스 표시가 있는 녹색 버튼, 축소하려면 빼기 표시가 있는 녹색 버튼, 다음 페이지의 지도를 보려면 녹색 화살표를 클릭하세요.


METAR-TAF: